CSL Niagara — VCGJ — position and weather

sailwx.info

Track history (hours):
 
Tides and Currents Weather Stations Pressure Air Temp Water Temp Dewpoint Dewpoint Depression Visibility Wind Speed Wind Dir Waves Ship Positions

CSL Niagara

ex J. W. McGiffin

Last reported at 2017-Jan-09 04:24 UTC. Time now 2017-Mar-24 12:10 UTC.
Position N 46°57' W 091°40'.
Warning: this ship's position is months out of date.

Length 225 m; draft 7 m.

Type: Cargo ship. MMSI: 316029000.

Date/timePositionNaut miles runAvg speedWind from/ knotsBaromVisibWave heightAir tempDewpointWater temp
2017-Jan-09 04:24N 46°57' W 091°40'1012.1
2017-Jan-09 03:33N 46°52' W 091°53'1110.5
2017-Jan-09 02:33N 46°46' W 092°06'2 1.7
2017-Jan-09 01:24N 46°45' W 092°08'0 0.5
2017-Jan-09 00:27N 46°45' W 092°08'0 0.0
2017-Jan-08 23:24N 46°45' W 092°08'0 0.0
2017-Jan-08 22:30N 46°45' W 092°08'0 0.0
2017-Jan-08 21:30N 46°45' W 092°08'0 0.0
2017-Jan-08 20:30N 46°45' W 092°08'0 0.0
2017-Jan-08 19:33N 46°45' W 092°08'0 0.0
2017-Jan-08 18:27N 46°45' W 092°08'0 0.1
2017-Jan-08 17:33N 46°45' W 092°08'0 0.0
2017-Jan-08 16:33N 46°45' W 092°08'0 0.0
2017-Jan-08 15:33N 46°45' W 092°08'1 1.5
2017-Jan-08 14:33N 46°45' W 092°06'1 0.5
2017-Jan-08 13:33N 46°46' W 092°06'0 0.0
2017-Jan-08 12:33N 46°46' W 092°06'0 0.0
2017-Jan-08 11:33N 46°46' W 092°06'2 2.4
2017-Jan-08 10:33N 46°47' W 092°04'1312.4
2017-Jan-08 09:32N 46°54' W 091°48'1812.5
2017-Jan-08 08:07N 47°05' W 091°27'712.5
2017-Jan-08 07:33N 47°09' W 091°19'  
2016-Dec-31 20:34N 46°56' W 091°40'1212.0
2016-Dec-31 19:34N 46°50' W 091°55'9 8.5
2016-Dec-31 18:33N 46°46' W 092°06'2 1.7
2016-Dec-31 17:33N 46°45' W 092°08'0 0.0
2016-Dec-31 16:33N 46°45' W 092°08'0 0.0
2016-Dec-31 15:32N 46°45' W 092°08'0 0.0
2016-Dec-31 09:26N 46°45' W 092°08'0 0.0
2016-Dec-31 08:28N 46°45' W 092°08'0 0.0
2016-Dec-31 07:28N 46°45' W 092°08'  
Track history (hours):
 
Tides and Currents Weather Stations Pressure Air Temp Water Temp Dewpoint Dewpoint Depression Visibility Wind Speed Wind Dir Waves Ship Positions

CSL Niagara

ex J. W. McGiffin

Last reported at 2017-Jan-09 04:24 UTC. Time now 2017-Mar-24 12:10 UTC.
Position N 46°57' W 091°40'.
Warning: this ship's position is months out of date.

Length 225 m; draft 7 m.

Type: Cargo ship. MMSI: 316029000.

Date/timePositionNaut miles runAvg speedWind from/ knotsBaromVisibWave heightAir tempDewpointWater temp
2017-Jan-09 04:24N 46°57' W 091°40'1012.1
2017-Jan-09 03:33N 46°52' W 091°53'1110.5
2017-Jan-09 02:33N 46°46' W 092°06'2 1.7
2017-Jan-09 01:24N 46°45' W 092°08'0 0.5
2017-Jan-09 00:27N 46°45' W 092°08'0 0.0
2017-Jan-08 23:24N 46°45' W 092°08'0 0.0
2017-Jan-08 22:30N 46°45' W 092°08'0 0.0
2017-Jan-08 21:30N 46°45' W 092°08'0 0.0
2017-Jan-08 20:30N 46°45' W 092°08'0 0.0
2017-Jan-08 19:33N 46°45' W 092°08'0 0.0
2017-Jan-08 18:27N 46°45' W 092°08'0 0.1
2017-Jan-08 17:33N 46°45' W 092°08'0 0.0
2017-Jan-08 16:33N 46°45' W 092°08'0 0.0
2017-Jan-08 15:33N 46°45' W 092°08'1 1.5
2017-Jan-08 14:33N 46°45' W 092°06'1 0.5
2017-Jan-08 13:33N 46°46' W 092°06'0 0.0
2017-Jan-08 12:33N 46°46' W 092°06'0 0.0
2017-Jan-08 11:33N 46°46' W 092°06'2 2.4
2017-Jan-08 10:33N 46°47' W 092°04'1312.4
2017-Jan-08 09:32N 46°54' W 091°48'1812.5
2017-Jan-08 08:07N 47°05' W 091°27'712.5
2017-Jan-08 07:33N 47°09' W 091°19'  
2016-Dec-31 20:34N 46°56' W 091°40'1212.0
2016-Dec-31 19:34N 46°50' W 091°55'9 8.5
2016-Dec-31 18:33N 46°46' W 092°06'2 1.7
2016-Dec-31 17:33N 46°45' W 092°08'0 0.0
2016-Dec-31 16:33N 46°45' W 092°08'0 0.0
2016-Dec-31 15:32N 46°45' W 092°08'0 0.0
2016-Dec-31 09:26N 46°45' W 092°08'0 0.0
2016-Dec-31 08:28N 46°45' W 092°08'0 0.0
2016-Dec-31 07:28N 46°45' W 092°08'  

Dump ship's entire track history